Aeroporto :
LOGIN :

Iscrizione | Disclaimer

   EN    FR    IT 

 










Sommario :    VFR   VFR Marginale   IFR   IFR Intensivo   IFR Molto Intensivo
Visibilità : 
Base nubi : 
>= 8 km
>= 3000ft
5 / 8 km
1000 / 3000 ft
1500m / 5 km
500 / 1000 ft
800 / 1500m
200 / 500 ft
< 800m
< 200 ft
Simboli :   Temporali  Nebbia  Neve Forte  Precipitazioni Forti  Vento > 20 kt
SIGMETs :   Varie  Temporali  Ghiacco  Turbolenza  Onda orograficha  Ceneri Vulcaniche






- Altitudine del aeroporto : 1910 ft
- Codice IATA : RDZ


LFCR - Rodez

ULTIMO METAR :
  • 140900Z AUTO 13007KT 110V180 9999 -RA FEW027/// BKN036/// OVC044/// ///TCU 01/01 Q1000 TEMPO 26010KT 2000 RA BKN002 SCT012CB

METARs OBSOLETI :
  • 140830Z AUTO 13004KT 8000 -SN FEW008/// SCT018/// OVC025/// ///TCU 01/01 Q1000 TEMPO 26010KT 2000 RA BKN002 SCT012CB
  • 140800Z AUTO 12005KT 9000 -SN FEW006/// SCT010/// OVC017/// ///TCU 01/01 Q1001 TEMPO 2000 RA BKN002 SCT012CB BECMG 26010KT
  • 140730Z AUTO VRB02KT 9999 -SN BKN007/// OVC012/// ///TCU 02/01 Q1001 TEMPO 2000 RA BKN002 SCT012CB
  • 140700Z AUTO 30003KT 9999 -SNRA BKN013/// OVC019/// ///TCU 02/01 Q1001 TEMPO 2000 RA BKN002 SCT012CB
  • 140630Z AUTO 26004KT 210V310 9999 -RA BKN011/// OVC018/// ///CB 03/02 Q1001 TEMPO 2000 RA BKN002 SCT012CB

TAF AMD TAF LFCR
Valido dal 14 a 09 ore il 15 a 06 ore UTC


140910Z 1409/1506 26010KT 6000 -RA SCT020 BKN036
BECMG 1410/1412 VRB02KT 8000 NSW BKN010
PROB40
TEMPO 1412/1416 4000 -SHRA
BECMG 1420/1422 4000 BR OVC004
TEMPO 1500/1506 2000 BR OVC002
PROB30
TEMPO 1500/1506 0500 FG VV///



MetMap, La meteo Aeronautica in un colpo d'occhio ! - Copyright ORBIFLY Dicembre 2007 - Disclaimer

ORBIFLY MET'MAP TEAM :

Programmazione e sviluppo : Alexandra Zaïnal
Concezione e sviluppo : Baudouin d'Aumeries
Co-Programmazione e sviluppo : Marc-Olivier Méhu
Supporto tecnico e logistico : Manuel Goepfert
Aiuto per la traduzione : Arnaldo La Scala

Contatto : metmap@orbifly.com




FONTI E CREDITI :

   NOAA